createdAt,value
2022-08-17T00:04:19.448Z,83.89
2022-08-17T00:09:23.958Z,83.99
2022-08-17T00:14:26.976Z,84.82
2022-08-17T00:19:33.025Z,84.53
2022-08-17T00:24:37.493Z,83.88
2022-08-17T00:29:40.774Z,83.14
2022-08-17T00:34:43.681Z,85.07
2022-08-17T00:39:48.341Z,86.11
2022-08-17T00:44:51.490Z,84.86
2022-08-17T00:49:54.744Z,87.23
2022-08-17T00:55:00.507Z,88.30
2022-08-17T01:00:09.475Z,90.11
2022-08-17T01:05:18.653Z,87.23
2022-08-17T01:11:00.084Z,89.09
2022-08-17T01:15:57.502Z,96.47
2022-08-17T01:21:08.662Z,100.00
2022-08-17T01:26:13.053Z,100.00
2022-08-17T01:31:16.351Z,100.00
2022-08-17T01:36:19.535Z,100.00
2022-08-17T01:41:25.465Z,100.00
2022-08-17T01:46:30.061Z,100.00
2022-08-17T01:51:33.793Z,100.00
2022-08-17T01:56:42.805Z,100.00
2022-08-17T02:01:46.980Z,100.00
2022-08-17T02:06:53.618Z,100.00
2022-08-17T02:12:38.538Z,100.00
2022-08-17T02:17:26.584Z,100.00
2022-08-17T02:22:30.162Z,100.00
2022-08-17T02:27:34.456Z,100.00
2022-08-17T02:32:37.779Z,100.00
2022-08-17T02:37:43.080Z,100.00
2022-08-17T02:42:52.590Z,100.00
2022-08-17T02:47:55.979Z,100.00
2022-08-17T02:53:01.684Z,100.00
2022-08-17T02:58:06.703Z,100.00
2022-08-17T03:03:13.704Z,100.00
2022-08-17T03:08:17.041Z,100.00
2022-08-17T03:13:21.752Z,100.00
2022-08-17T03:18:26.290Z,100.00
2022-08-17T03:23:33.110Z,100.00
2022-08-17T03:28:37.560Z,100.00
2022-08-17T03:33:40.773Z,100.00
2022-08-17T03:38:43.763Z,100.00
2022-08-17T03:43:49.397Z,100.00
2022-08-17T03:49:09.981Z,100.00
2022-08-17T03:54:30.567Z,100.00
2022-08-17T03:59:36.306Z,100.00
2022-08-17T04:04:40.338Z,100.00
2022-08-17T04:09:44.988Z,100.00
2022-08-17T04:14:53.147Z,100.00
2022-08-17T04:19:57.713Z,100.00
2022-08-17T04:25:00.742Z,100.00
2022-08-17T04:30:07.289Z,100.00
2022-08-17T04:35:10.799Z,100.00
2022-08-17T04:40:31.586Z,100.00
2022-08-17T04:45:39.995Z,100.00
2022-08-17T04:50:45.286Z,100.00
2022-08-17T04:55:48.423Z,100.00
2022-08-17T05:00:52.841Z,100.00
2022-08-17T05:05:55.924Z,100.00
2022-08-17T05:11:01.024Z,100.00
2022-08-17T05:16:06.403Z,100.00
2022-08-17T05:21:10.096Z,100.00
2022-08-17T05:26:26.458Z,100.00
2022-08-17T05:31:32.034Z,100.00
2022-08-17T05:36:43.722Z,100.00
2022-08-17T05:41:48.842Z,100.00
2022-08-17T05:46:54.358Z,100.00
2022-08-17T05:52:10.437Z,100.00
2022-08-17T05:57:39.509Z,100.00
2022-08-17T06:03:04.547Z,100.00
2022-08-17T06:08:14.152Z,100.00
2022-08-17T06:13:26.836Z,100.00
2022-08-17T06:18:37.737Z,100.00
2022-08-17T06:23:44.671Z,100.00
2022-08-17T06:28:52.685Z,100.00
2022-08-17T06:33:58.087Z,100.00
2022-08-17T06:39:17.108Z,100.00
2022-08-17T06:44:43.463Z,100.00
2022-08-17T06:50:02.148Z,100.00
2022-08-17T06:55:09.392Z,100.00
2022-08-17T07:00:24.339Z,100.00
2022-08-17T07:05:36.356Z,100.00
2022-08-17T07:10:46.096Z,100.00
2022-08-17T07:15:56.510Z,100.00
2022-08-17T07:21:14.173Z,100.00
2022-08-17T07:26:23.314Z,99.63
2022-08-17T07:31:27.592Z,100.00
2022-08-17T07:36:34.749Z,100.00
2022-08-17T07:41:53.037Z,100.00
2022-08-17T07:47:18.845Z,100.00
2022-08-17T07:52:50.751Z,100.00
2022-08-17T07:57:58.064Z,100.00
2022-08-17T08:03:13.550Z,100.00
2022-08-17T08:08:26.335Z,100.00
2022-08-17T08:13:32.351Z,100.00
2022-08-17T08:18:54.818Z,100.00
2022-08-17T08:24:32.547Z,100.00
2022-08-17T08:29:45.773Z,100.00
2022-08-17T08:35:02.837Z,100.00
2022-08-17T08:40:20.904Z,100.00
2022-08-17T08:45:27.627Z,100.00
2022-08-17T08:50:40.298Z,100.00
2022-08-17T08:55:53.022Z,100.00
2022-08-17T09:00:59.496Z,100.00
2022-08-17T09:06:37.765Z,100.00
2022-08-17T09:12:01.077Z,100.00
2022-08-17T09:17:13.890Z,97.96
2022-08-17T09:22:31.923Z,97.20
2022-08-17T09:27:47.765Z,97.47
2022-08-17T09:32:55.847Z,96.56
2022-08-17T09:38:09.959Z,91.64
2022-08-17T09:43:23.311Z,90.10
2022-08-17T09:48:32.703Z,88.83
2022-08-17T09:53:38.225Z,88.37
2022-08-17T09:58:56.716Z,88.10
2022-08-17T10:04:24.849Z,86.90
2022-08-17T10:09:45.251Z,85.70
2022-08-17T10:15:08.077Z,84.57
2022-08-17T10:20:18.354Z,79.91
2022-08-17T10:25:53.986Z,78.86
2022-08-17T10:31:34.357Z,78.62
2022-08-17T10:36:37.958Z,78.84
2022-08-17T10:41:45.844Z,80.48
2022-08-17T10:47:04.683Z,81.37
2022-08-17T10:52:49.392Z,81.35
2022-08-17T10:57:54.872Z,80.56
2022-08-17T11:03:00.998Z,85.18
2022-08-17T11:08:24.629Z,92.13
2022-08-17T11:13:40.065Z,100.00
2022-08-17T11:19:10.266Z,100.00
2022-08-17T11:24:20.124Z,100.00
2022-08-17T11:29:27.547Z,100.00
2022-08-17T11:34:35.394Z,100.00
2022-08-17T11:39:55.557Z,100.00
2022-08-17T11:45:02.533Z,100.00
2022-08-17T11:50:48.253Z,100.00
2022-08-17T11:56:06.302Z,100.00
2022-08-17T12:01:13.629Z,100.00
2022-08-17T12:06:32.042Z,100.00
2022-08-17T12:11:56.393Z,100.00
2022-08-17T12:17:09.183Z,100.00
2022-08-17T12:22:18.908Z,100.00
2022-08-17T12:27:47.700Z,100.00
2022-08-17T12:32:51.057Z,100.00
2022-08-17T12:37:57.651Z,100.00
2022-08-17T12:43:06.737Z,100.00
2022-08-17T12:48:12.641Z,100.00
2022-08-17T12:53:21.306Z,100.00
2022-08-17T12:58:26.881Z,100.00
2022-08-17T13:03:37.271Z,100.00
2022-08-17T13:08:44.361Z,100.00
2022-08-17T13:13:51.303Z,100.00
2022-08-17T13:18:58.426Z,100.00
2022-08-17T13:24:07.797Z,100.00
2022-08-17T13:29:23.888Z,100.00
2022-08-17T13:35:11.785Z,100.00
2022-08-17T13:40:28.036Z,100.00
2022-08-17T13:45:38.964Z,100.00
2022-08-17T13:50:45.717Z,100.00
2022-08-17T13:55:53.448Z,100.00
2022-08-17T14:00:59.332Z,100.00
2022-08-17T14:06:02.623Z,100.00
2022-08-17T14:11:07.014Z,100.00
2022-08-17T14:16:09.997Z,100.00
2022-08-17T14:21:13.384Z,100.00
2022-08-17T14:26:17.731Z,100.00
2022-08-17T14:31:21.278Z,100.00
2022-08-17T14:36:24.182Z,100.00
2022-08-17T14:41:29.020Z,100.00
2022-08-17T14:46:32.738Z,100.00
2022-08-17T14:51:36.294Z,100.00
2022-08-17T14:56:48.202Z,100.00
2022-08-17T15:02:01.042Z,100.00
2022-08-17T15:07:04.165Z,100.00
2022-08-17T15:12:09.545Z,100.00
2022-08-17T15:17:12.496Z,100.00
2022-08-17T15:22:23.853Z,100.00
2022-08-17T15:27:32.429Z,100.00
2022-08-17T15:32:38.992Z,100.00
2022-08-17T15:37:42.011Z,100.00
2022-08-17T15:42:46.337Z,100.00
2022-08-17T15:47:49.503Z,100.00
2022-08-17T15:52:58.768Z,100.00
2022-08-17T15:58:03.162Z,100.00
2022-08-17T16:03:46.298Z,100.00
2022-08-17T16:08:29.838Z,100.00
2022-08-17T16:13:34.168Z,100.00
2022-08-17T16:18:37.831Z,100.00
2022-08-17T16:23:40.752Z,100.00
2022-08-17T16:28:45.174Z,100.00
2022-08-17T16:33:58.498Z,100.00
2022-08-17T16:39:12.505Z,100.00
2022-08-17T16:44:21.795Z,100.00
2022-08-17T16:49:37.147Z,100.00
2022-08-17T16:54:43.790Z,100.00
2022-08-17T16:59:50.343Z,100.00
2022-08-17T17:04:59.378Z,100.00
2022-08-17T17:10:08.717Z,100.00
2022-08-17T17:15:15.694Z,100.00
2022-08-17T17:20:28.836Z,100.00
2022-08-17T17:25:42.014Z,100.00
2022-08-17T17:30:56.741Z,100.00
2022-08-17T17:36:02.931Z,100.00
2022-08-17T17:41:09.774Z,100.00
2022-08-17T17:46:28.085Z,100.00
2022-08-17T17:52:07.873Z,100.00
2022-08-17T17:57:12.215Z,100.00
2022-08-17T18:02:51.540Z,100.00
2022-08-17T18:08:05.941Z,100.00
2022-08-17T18:13:26.688Z,100.00
2022-08-17T18:18:39.686Z,100.00
2022-08-17T18:23:53.129Z,100.00
2022-08-17T18:28:56.133Z,100.00
2022-08-17T18:34:45.935Z,100.00
2022-08-17T18:39:44.437Z,100.00
2022-08-17T18:44:50.614Z,100.00
2022-08-17T18:50:11.954Z,100.00
2022-08-17T18:55:18.206Z,100.00
2022-08-17T19:00:36.609Z,100.00
2022-08-17T19:05:43.142Z,100.00
2022-08-17T19:10:47.598Z,100.00
2022-08-17T19:16:13.955Z,100.00
2022-08-17T19:21:22.480Z,100.00
2022-08-17T19:26:51.209Z,100.00
2022-08-17T19:31:51.548Z,100.00
2022-08-17T19:37:03.472Z,100.00
2022-08-17T19:42:17.741Z,100.00
2022-08-17T19:47:53.299Z,100.00
2022-08-17T19:52:59.023Z,100.00
2022-08-17T19:58:12.452Z,100.00
2022-08-17T20:03:27.073Z,100.00
2022-08-17T20:08:38.775Z,100.00
2022-08-17T20:13:43.729Z,100.00
2022-08-17T20:18:53.161Z,100.00
2022-08-17T20:24:08.065Z,100.00
2022-08-17T20:29:40.006Z,100.00
2022-08-17T20:34:47.533Z,100.00
2022-08-17T20:40:22.086Z,100.00
2022-08-17T20:45:54.080Z,100.00
2022-08-17T20:51:00.928Z,100.00
2022-08-17T20:56:05.954Z,100.00
2022-08-17T21:01:16.131Z,100.00
2022-08-17T21:06:23.053Z,100.00
2022-08-17T21:12:04.252Z,100.00
2022-08-17T21:17:22.731Z,100.00
2022-08-17T21:22:38.658Z,100.00
2022-08-17T21:27:51.333Z,100.00
2022-08-17T21:33:20.691Z,100.00
2022-08-17T21:38:34.920Z,100.00
2022-08-17T21:43:48.666Z,100.00
2022-08-17T21:48:54.531Z,100.00
2022-08-17T21:54:01.340Z,100.00
2022-08-17T21:59:07.825Z,100.00
2022-08-17T22:04:20.674Z,100.00
2022-08-17T22:09:26.692Z,100.00
2022-08-17T22:14:52.730Z,100.00
2022-08-17T22:20:00.023Z,100.00
2022-08-17T22:25:06.694Z,100.00
2022-08-17T22:30:20.369Z,100.00
2022-08-17T22:35:38.448Z,100.00
2022-08-17T22:40:41.601Z,100.00
2022-08-17T22:45:51.430Z,100.00
2022-08-17T22:51:12.817Z,100.00
2022-08-17T22:56:37.345Z,100.00
2022-08-17T23:01:43.395Z,100.00
2022-08-17T23:06:46.438Z,100.00
2022-08-17T23:11:53.514Z,100.00
2022-08-17T23:17:01.131Z,100.00
2022-08-17T23:22:06.120Z,100.00
2022-08-17T23:27:09.046Z,100.00
2022-08-17T23:32:16.169Z,100.00
2022-08-17T23:37:20.564Z,100.00
2022-08-17T23:42:23.959Z,100.00
2022-08-17T23:47:28.722Z,100.00
2022-08-17T23:52:32.254Z,100.00
2022-08-17T23:57:35.850Z,100.00
